Time;durP1;ratioP1;P1;durP2;ratioP2;P2;SDS_P1;SDS_P2;PMS_P1;PMS_P2;Temp;Humidity;BMP_temperature;BMP_pressure;BME280_temperature;BME280_humidity;BME280_pressure;Samples;Min_cycle;Max_cycle;Signal;HPM_P1;HPM_P2
2022/09/15 00:01:06;;;;;;;7.18;3.15;;;;;;;13.42;98.71;100856.72;5032556;28;20044;-70
2022/09/15 00:03:32;;;;;;;7.70;2.90;;;;;;;13.38;98.65;100860.94;5050175;28;20033;-69
2022/09/15 00:05:58;;;;;;;7.82;3.92;;;;;;;13.34;98.53;100859.69;5051133;28;20116;-69
2022/09/15 00:08:24;;;;;;;5.93;2.80;;;;;;;13.25;98.33;100861.84;5050598;28;20524;-69
2022/09/15 00:11:02;;;;;;;7.57;2.73;;;;;;;13.20;98.80;100869.03;5050510;28;20052;-70
2022/09/15 00:13:28;;;;;;;5.10;2.72;;;;;;;13.15;99.36;100866.06;5046589;28;20071;-71
2022/09/15 00:15:53;;;;;;;7.87;3.27;;;;;;;13.11;98.69;100864.78;5051489;28;20036;-70
2022/09/15 00:18:19;;;;;;;4.63;2.60;;;;;;;13.11;98.75;100860.16;5050185;28;20040;-69
2022/09/15 00:20:45;;;;;;;6.63;2.70;;;;;;;13.15;99.20;100861.44;5051390;28;20033;-70
2022/09/15 00:23:12;;;;;;;9.90;2.93;;;;;;;13.10;98.62;100857.59;5044055;28;20034;-69
2022/09/15 00:25:43;;;;;;;5.18;3.00;;;;;;;13.08;98.75;100857.81;5035948;28;20357;-69
2022/09/15 00:28:09;;;;;;;7.20;2.67;;;;;;;13.03;99.22;100863.09;5051475;28;20032;-69
2022/09/15 00:30:39;;;;;;;6.30;2.90;;;;;;;12.98;99.14;100864.81;5050963;28;20112;-69
2022/09/15 00:33:05;;;;;;;8.07;2.85;;;;;;;12.95;99.10;100856.94;5033141;28;20021;-70
2022/09/15 00:35:30;;;;;;;3.80;2.60;;;;;;;12.89;99.86;100850.41;5047765;28;20029;-71
2022/09/15 00:37:55;;;;;;;7.23;2.70;;;;;;;12.91;99.81;100859.28;5030858;28;20025;-69
2022/09/15 00:40:21;;;;;;;5.90;3.20;;;;;;;12.87;99.68;100855.25;5047341;28;20029;-70
2022/09/15 00:42:46;;;;;;;8.27;3.67;;;;;;;12.86;99.43;100856.31;5049514;28;20113;-70
2022/09/15 00:45:16;;;;;;;5.03;2.40;;;;;;;12.83;99.61;100854.00;5050547;28;20052;-68
2022/09/15 00:47:42;;;;;;;9.05;2.55;;;;;;;12.80;99.29;100856.34;5050082;28;20467;-68
2022/09/15 00:50:12;;;;;;;6.60;2.57;;;;;;;12.78;100.00;100853.81;5033301;28;20067;-69
2022/09/15 00:52:48;;;;;;;3.83;2.70;;;;;;;12.75;99.49;100853.38;5032347;28;20020;-70
2022/09/15 00:55:30;;;;;;;4.63;2.60;;;;;;;12.74;99.22;100854.41;5017918;28;20037;-69
2022/09/15 00:58:08;;;;;;;10.02;2.70;;;;;;;12.70;99.25;100862.25;5045952;28;20052;-69
2022/09/15 01:00:34;;;;;;;6.80;2.85;;;;;;;12.66;99.65;100860.13;5031459;28;20120;-70
2022/09/15 01:03:00;;;;;;;10.53;2.53;;;;;;;12.64;99.67;100863.09;5046702;28;20174;-70
2022/09/15 01:05:31;;;;;;;10.70;3.00;;;;;;;12.66;99.05;100868.38;5051185;28;20035;-70
2022/09/15 01:07:59;;;;;;;5.25;2.42;;;;;;;12.61;98.74;100859.91;5048442;28;20086;-69
2022/09/15 01:10:27;;;;;;;3.78;2.67;;;;;;;12.55;99.75;100861.59;5048470;28;20037;-70
2022/09/15 01:13:00;;;;;;;4.20;2.50;;;;;;;12.51;99.87;100857.59;5050508;28;20032;-70
2022/09/15 01:15:33;;;;;;;5.18;2.35;;;;;;;12.48;99.71;100860.75;5049896;28;20044;-70
2022/09/15 01:18:19;;;;;;;7.53;2.28;;;;;;;12.49;99.63;100864.34;5030157;28;20128;-70
2022/09/15 01:20:53;;;;;;;2.33;2.13;;;;;;;12.45;100.00;100857.56;5050955;28;20029;-70
2022/09/15 01:23:36;;;;;;;6.35;2.65;;;;;;;12.41;99.60;100868.13;5049067;28;20047;-70
2022/09/15 01:26:05;;;;;;;11.35;2.30;;;;;;;12.41;99.36;100867.28;5020356;28;20038;-71
2022/09/15 01:28:58;;;;;;;7.22;2.53;;;;;;;12.36;99.06;100864.31;5027474;28;20121;-71
2022/09/15 01:31:33;;;;;;;5.90;2.67;;;;;;;12.35;99.76;100876.34;5044557;28;20029;-71
2022/09/15 01:34:15;;;;;;;6.30;2.28;;;;;;;12.31;100.00;100864.09;5047756;28;20025;-70
2022/09/15 01:36:51;;;;;;;7.10;2.33;;;;;;;12.30;99.41;100865.16;5050018;28;20487;-69
2022/09/15 01:39:23;;;;;;;2.50;1.98;;;;;;;12.27;99.15;100868.31;5049615;28;20472;-70
2022/09/15 01:41:54;;;;;;;4.75;2.65;;;;;;;12.21;99.31;100861.75;5024943;28;20416;-70
2022/09/15 01:44:33;;;;;;;2.88;1.95;;;;;;;12.22;99.80;100863.44;5030355;28;20362;-70
2022/09/15 01:47:04;;;;;;;4.70;2.50;;;;;;;12.23;100.00;100854.13;5049362;28;20025;-70
2022/09/15 01:49:35;;;;;;;4.90;2.03;;;;;;;12.19;100.00;100855.63;5030403;28;20060;-69
2022/09/15 01:52:00;;;;;;;3.03;2.10;;;;;;;12.19;99.16;100857.50;5050394;28;20074;-69
2022/09/15 01:54:43;;;;;;;4.10;2.57;;;;;;;12.19;100.00;100860.25;5049473;28;20037;-69
2022/09/15 01:57:08;;;;;;;8.15;3.00;;;;;;;12.11;100.00;100858.53;5030508;28;20058;-69
2022/09/15 01:59:34;;;;;;;5.97;2.47;;;;;;;12.15;100.00;100853.47;5031115;28;20140;-70
2022/09/15 02:02:04;;;;;;;4.30;2.30;;;;;;;12.17;99.68;100854.13;5048724;28;20384;-70
2022/09/15 02:04:37;;;;;;;6.35;2.33;;;;;;;12.16;99.70;100844.22;5031566;28;20037;-69
2022/09/15 02:07:05;;;;;;;7.10;2.63;;;;;;;12.14;99.00;100840.81;5050061;28;20052;-70
2022/09/15 02:09:41;;;;;;;14.70;2.83;;;;;;;12.13;99.38;100848.22;5031575;28;20033;-69
2022/09/15 02:12:18;;;;;;;6.10;2.38;;;;;;;12.16;99.86;100846.97;5048634;28;20025;-71
2022/09/15 02:14:50;;;;;;;8.20;2.38;;;;;;;12.17;99.89;100848.66;5030976;28;20032;-70
2022/09/15 02:17:18;;;;;;;3.92;2.33;;;;;;;12.13;99.29;100856.47;5045383;28;20039;-69
2022/09/15 02:19:49;;;;;;;3.53;3.03;;;;;;;12.15;100.00;100859.84;5048764;28;20072;-69
2022/09/15 02:22:22;;;;;;;4.35;2.95;;;;;;;12.12;99.60;100854.75;5030835;28;20440;-70
2022/09/15 02:24:55;;;;;;;5.68;3.20;;;;;;;12.16;100.00;100850.53;5047165;28;20124;-69
2022/09/15 02:27:24;;;;;;;6.40;3.40;;;;;;;12.09;99.34;100855.16;5046802;28;20037;-70
2022/09/15 02:29:54;;;;;;;6.72;4.22;;;;;;;12.11;99.35;100865.94;5031283;28;20029;-69
2022/09/15 02:32:24;;;;;;;9.00;4.35;;;;;;;12.07;98.89;100864.66;5047140;28;20040;-69
2022/09/15 02:34:53;;;;;;;7.78;4.18;;;;;;;12.08;99.51;100863.59;5043662;28;20047;-69
2022/09/15 02:37:20;;;;;;;5.80;4.68;;;;;;;12.11;99.48;100876.94;5049061;28;20429;-71
2022/09/15 02:39:50;;;;;;;8.68;4.55;;;;;;;12.17;99.56;100873.38;5049872;28;20025;-70
2022/09/15 02:42:31;;;;;;;9.73;4.85;;;;;;;12.29;99.63;100866.19;5048831;28;20029;-70
2022/09/15 02:44:58;;;;;;;6.03;4.50;;;;;;;12.38;99.70;100862.22;5043200;28;20029;-71
2022/09/15 02:47:24;;;;;;;8.70;4.85;;;;;;;12.47;99.75;100863.69;5048182;28;20116;-71
2022/09/15 02:49:50;;;;;;;7.70;4.85;;;;;;;12.61;99.77;100874.50;5018229;28;20037;-70
2022/09/15 02:52:15;;;;;;;11.23;4.17;;;;;;;12.72;99.49;100876.63;5048140;28;20032;-70
2022/09/15 02:54:40;;;;;;;7.23;4.47;;;;;;;12.82;99.21;100881.72;5012218;28;20499;-70
2022/09/15 02:57:06;;;;;;;10.60;3.80;;;;;;;12.95;98.70;100881.69;5048464;28;20483;-69
2022/09/15 03:02:19;;;;;;;5.68;3.78;;;;;;;13.06;99.29;100876.44;5051772;28;20098;-69
2022/09/15 03:04:46;;;;;;;11.07;3.35;;;;;;;13.14;99.91;100875.38;5027147;28;20046;-70
2022/09/15 03:07:12;;;;;;;7.55;3.47;;;;;;;13.16;99.28;100873.25;5051070;28;20036;-70
2022/09/15 03:09:37;;;;;;;6.00;3.80;;;;;;;13.27;98.90;100875.34;5050197;28;20036;-69
2022/09/15 03:12:03;;;;;;;12.20;3.53;;;;;;;13.28;99.15;100877.06;5033621;28;20029;-70
2022/09/15 03:14:31;;;;;;;9.13;3.07;;;;;;;13.28;99.06;100882.56;5050916;28;20053;-69
2022/09/15 03:16:57;;;;;;;6.03;3.38;;;;;;;13.32;99.03;100878.31;5023633;28;20021;-69
2022/09/15 03:19:22;;;;;;;5.13;3.23;;;;;;;13.32;99.71;100879.16;5033373;28;20489;-69
2022/09/15 03:21:47;;;;;;;9.67;3.03;;;;;;;13.33;99.21;100882.75;5051869;28;20029;-70
2022/09/15 03:24:14;;;;;;;7.37;3.37;;;;;;;13.34;99.14;100884.47;5050690;28;20530;-69
2022/09/15 03:26:39;;;;;;;8.18;2.72;;;;;;;13.36;99.69;100888.69;5051859;28;20025;-69
2022/09/15 03:29:04;;;;;;;6.67;2.90;;;;;;;13.34;99.25;100882.53;5033883;28;20044;-70
2022/09/15 03:31:30;;;;;;;4.30;2.90;;;;;;;13.32;98.91;100884.66;5033526;28;20033;-69
2022/09/15 03:33:55;;;;;;;21.90;2.87;;;;;;;13.34;98.98;100887.22;5051388;28;20043;-69
2022/09/15 03:36:20;;;;;;;7.63;3.17;;;;;;;13.34;98.98;100893.53;5051129;28;20060;-69
2022/09/15 03:38:46;;;;;;;10.93;3.00;;;;;;;13.34;99.11;100888.03;5049895;28;20472;-69
2022/09/15 03:41:12;;;;;;;5.87;2.93;;;;;;;13.37;99.35;100889.53;5051054;28;20068;-70
2022/09/15 03:43:38;;;;;;;6.13;2.75;;;;;;;13.37;99.34;100889.53;5029410;28;20088;-70
2022/09/15 03:46:05;;;;;;;9.33;2.70;;;;;;;13.40;99.07;100891.84;5051439;28;20045;-71
2022/09/15 03:48:33;;;;;;;10.63;2.67;;;;;;;13.42;99.50;100889.72;5032283;28;20024;-71
2022/09/15 03:50:58;;;;;;;7.13;2.40;;;;;;;13.44;99.48;100887.63;5032439;28;20029;-70
2022/09/15 03:53:24;;;;;;;4.37;2.27;;;;;;;13.46;99.77;100883.56;5050446;28;20131;-70
2022/09/15 03:55:49;;;;;;;5.30;2.97;;;;;;;13.47;100.00;100888.03;5051522;28;20369;-70
2022/09/15 03:58:16;;;;;;;3.57;2.40;;;;;;;13.48;99.37;100899.88;5050674;28;20447;-69
2022/09/15 04:00:42;;;;;;;10.68;2.90;;;;;;;13.49;99.31;100891.41;5033459;28;20289;-71
2022/09/15 04:03:08;;;;;;;4.57;2.60;;;;;;;13.50;99.49;100889.50;5050212;28;20040;-71
2022/09/15 04:05:35;;;;;;;8.93;2.40;;;;;;;13.49;99.30;100891.41;5051671;28;20033;-70
2022/09/15 04:08:01;;;;;;;8.25;2.65;;;;;;;13.47;99.01;100898.19;5045535;28;20375;-71
2022/09/15 04:10:26;;;;;;;17.83;2.80;;;;;;;13.44;99.32;100887.63;5050644;28;20120;-70
2022/09/15 04:12:52;;;;;;;9.67;3.10;;;;;;;13.42;99.53;100895.22;5048619;28;20059;-69
2022/09/15 04:15:19;;;;;;;4.73;2.43;;;;;;;13.38;99.34;100889.31;5049953;28;20425;-69
2022/09/15 04:17:45;;;;;;;7.45;2.83;;;;;;;13.33;99.50;100888.25;5050462;28;20772;-69
2022/09/15 04:20:11;;;;;;;9.00;2.70;;;;;;;13.28;98.97;100893.56;5048631;28;20071;-70
2022/09/15 04:22:37;;;;;;;6.25;2.80;;;;;;;13.27;98.87;100886.34;5045225;28;20498;-68
2022/09/15 04:25:03;;;;;;;8.20;3.07;;;;;;;13.24;99.28;100887.63;5050119;28;20025;-71
2022/09/15 04:27:30;;;;;;;9.07;3.00;;;;;;;13.22;99.94;100887.00;5047585;28;20025;-69
2022/09/15 04:29:56;;;;;;;5.10;2.63;;;;;;;13.23;99.52;100898.88;5044557;28;20017;-72
2022/09/15 04:32:21;;;;;;;3.13;2.53;;;;;;;13.18;99.49;100893.16;5022232;28;20434;-71
2022/09/15 04:34:47;;;;;;;6.37;2.73;;;;;;;13.19;99.58;100895.69;5024280;28;20029;-69
2022/09/15 04:37:12;;;;;;;8.50;3.30;;;;;;;13.20;100.00;100897.38;5046179;28;20083;-70
2022/09/15 04:39:37;;;;;;;4.77;2.97;;;;;;;13.21;99.84;100887.22;5024393;28;20036;-69
2022/09/15 04:42:04;;;;;;;7.03;2.40;;;;;;;13.24;99.44;100884.06;5042661;28;20029;-70
2022/09/15 04:44:30;;;;;;;10.15;2.90;;;;;;;13.24;99.77;100879.38;5050127;28;20073;-69
2022/09/15 04:46:56;;;;;;;9.13;3.05;;;;;;;13.25;99.61;100885.75;5050887;28;20074;-68
2022/09/15 04:49:21;;;;;;;4.13;2.47;;;;;;;13.30;100.00;100888.69;5031348;28;20040;-70
2022/09/15 04:51:46;;;;;;;5.40;2.80;;;;;;;13.33;99.98;100891.00;5051127;28;20108;-69
2022/09/15 04:54:12;;;;;;;6.07;3.03;;;;;;;13.35;99.46;100888.91;5031626;28;20025;-70
2022/09/15 04:56:38;;;;;;;4.33;2.57;;;;;;;13.38;99.92;100882.94;5048827;28;20472;-70
2022/09/15 04:59:03;;;;;;;2.70;2.20;;;;;;;13.40;99.99;100884.44;5048418;28;20047;-69
2022/09/15 05:01:31;;;;;;;4.03;2.40;;;;;;;13.40;99.80;100886.34;5038589;28;20337;-71
2022/09/15 05:03:56;;;;;;;3.83;2.72;;;;;;;13.41;99.82;100880.66;5025641;28;20025;-70
2022/09/15 05:06:28;;;;;;;7.37;2.70;;;;;;;13.45;99.72;100883.81;5043954;28;20040;-69
2022/09/15 05:08:56;;;;;;;5.45;2.65;;;;;;;13.47;99.39;100887.19;5043135;28;20419;-72
2022/09/15 05:11:23;;;;;;;9.40;2.65;;;;;;;13.48;99.14;100888.88;5026195;28;20029;-69
2022/09/15 05:13:48;;;;;;;5.47;2.65;;;;;;;13.52;99.74;100890.13;5038947;28;20033;-69
2022/09/15 05:16:17;;;;;;;10.37;3.03;;;;;;;13.53;100.00;100891.81;5047770;28;20428;-70
2022/09/15 05:18:44;;;;;;;8.20;2.67;;;;;;;13.54;99.52;100899.00;5030752;28;20495;-70
2022/09/15 05:21:12;;;;;;;10.95;2.78;;;;;;;13.57;99.45;100899.44;5045907;28;20119;-71
2022/09/15 05:23:38;;;;;;;4.97;2.78;;;;;;;13.56;99.72;100905.16;5045677;28;20364;-70
2022/09/15 05:26:07;;;;;;;9.50;3.60;;;;;;;13.59;99.69;100899.22;5031593;28;20044;-70
2022/09/15 05:28:35;;;;;;;3.15;2.33;;;;;;;13.64;100.00;100905.78;5045988;28;20032;-70
2022/09/15 05:31:01;;;;;;;5.18;2.42;;;;;;;13.69;99.41;100905.13;5022863;28;20029;-69
2022/09/15 05:33:27;;;;;;;6.10;2.60;;;;;;;13.71;99.51;100898.34;5029091;28;20122;-70
2022/09/15 05:35:55;;;;;;;8.93;3.63;;;;;;;13.74;99.40;100906.19;5047520;28;20033;-69
2022/09/15 05:38:22;;;;;;;11.77;3.25;;;;;;;13.76;99.82;100903.22;5048339;28;20036;-69
2022/09/15 05:40:48;;;;;;;15.52;3.53;;;;;;;13.85;98.56;100902.75;5049311;28;20033;-69
2022/09/15 05:43:14;;;;;;;6.47;3.00;;;;;;;13.88;98.71;100901.47;5048971;28;20426;-69
2022/09/15 05:45:41;;;;;;;4.80;2.53;;;;;;;13.92;96.78;100903.56;5048463;28;20549;-69
2022/09/15 05:48:07;;;;;;;7.03;2.58;;;;;;;13.97;97.13;100911.16;5030879;28;20032;-70
2022/09/15 05:50:32;;;;;;;6.80;2.88;;;;;;;13.98;96.78;100902.69;5048672;28;20460;-69
2022/09/15 05:52:58;;;;;;;7.93;2.13;;;;;;;13.99;96.99;100909.06;5048014;28;20099;-70
2022/09/15 05:55:23;;;;;;;3.30;1.93;;;;;;;13.99;96.92;100906.28;5031321;28;20045;-69
2022/09/15 05:57:49;;;;;;;6.47;1.87;;;;;;;14.01;97.08;100915.19;5049339;28;20186;-69
2022/09/15 06:00:14;;;;;;;6.07;2.13;;;;;;;14.01;96.91;100912.41;5049411;28;20035;-69
2022/09/15 06:02:40;;;;;;;8.43;1.80;;;;;;;14.05;97.18;100925.56;5049773;28;20044;-69
2022/09/15 06:05:06;;;;;;;4.63;1.57;;;;;;;14.12;97.24;100917.25;5048950;28;20484;-70
2022/09/15 06:07:31;;;;;;;7.00;2.30;;;;;;;14.19;97.39;100927.22;5049512;28;20387;-70
2022/09/15 06:09:56;;;;;;;5.40;1.77;;;;;;;14.26;97.06;100924.44;5050300;28;20029;-69
2022/09/15 06:12:22;;;;;;;7.60;2.33;;;;;;;14.32;97.23;100927.16;5048444;28;20116;-69
2022/09/15 06:14:49;;;;;;;11.00;2.20;;;;;;;14.34;97.09;100925.03;5030774;28;20207;-69
2022/09/15 06:17:18;;;;;;;6.18;2.03;;;;;;;14.36;96.88;100928.41;5030975;28;20111;-70
2022/09/15 06:19:44;;;;;;;6.55;2.22;;;;;;;14.36;97.03;100922.06;5030939;28;20082;-71
2022/09/15 06:22:09;;;;;;;13.43;2.80;;;;;;;14.38;96.93;100925.44;5048586;28;20036;-69
2022/09/15 06:24:35;;;;;;;14.57;3.10;;;;;;;14.40;97.12;100928.81;5030984;28;20434;-69
2022/09/15 06:27:00;;;;;;;9.33;2.57;;;;;;;14.42;96.72;100929.44;5048339;28;20025;-70
2022/09/15 06:29:25;;;;;;;8.10;2.30;;;;;;;14.43;97.61;100934.75;5028878;28;20532;-69
2022/09/15 06:31:50;;;;;;;7.10;2.30;;;;;;;14.47;97.36;100937.91;5048768;28;20029;-69
2022/09/15 06:34:16;;;;;;;9.00;2.33;;;;;;;14.55;97.18;100937.63;5047132;28;20071;-69
2022/09/15 06:36:42;;;;;;;6.70;2.70;;;;;;;14.59;97.15;100942.50;5034157;28;20025;-70
2022/09/15 06:39:07;;;;;;;8.33;2.07;;;;;;;14.63;97.00;100942.91;5051675;28;20041;-71
2022/09/15 06:41:33;;;;;;;15.17;2.23;;;;;;;14.68;96.49;100945.84;5051908;28;20056;-69
2022/09/15 06:43:58;;;;;;;8.60;2.47;;;;;;;14.74;97.17;100942.19;5051917;28;20029;-70
2022/09/15 06:46:25;;;;;;;6.37;2.43;;;;;;;14.82;96.73;100944.66;5051642;28;20067;-70
2022/09/15 06:48:52;;;;;;;6.65;2.53;;;;;;;14.86;96.55;100952.28;5034686;28;20112;-70
2022/09/15 06:51:20;;;;;;;7.32;2.53;;;;;;;14.90;96.36;100952.69;5051358;28;20025;-70
2022/09/15 06:53:45;;;;;;;13.40;2.60;;;;;;;14.93;96.40;100957.75;5051692;28;20127;-70
2022/09/15 06:56:17;;;;;;;5.87;2.57;;;;;;;15.01;97.21;100965.75;5033965;28;20029;-70
2022/09/15 06:58:43;;;;;;;8.57;3.10;;;;;;;15.10;96.20;100959.75;5052636;28;20393;-70
2022/09/15 07:01:18;;;;;;;9.43;2.90;;;;;;;15.15;95.92;100965.44;5050543;28;20025;-70
2022/09/15 07:03:43;;;;;;;8.48;2.90;;;;;;;15.13;95.68;100959.31;5052617;28;20111;-70
2022/09/15 07:06:11;;;;;;;11.93;3.03;;;;;;;15.17;95.80;100965.22;5050776;28;20037;-70
2022/09/15 07:08:36;;;;;;;11.00;3.10;;;;;;;15.16;95.80;100980.09;5034641;28;20113;-71
2022/09/15 07:11:02;;;;;;;8.13;2.80;;;;;;;15.15;96.02;100978.41;5051313;28;20112;-70
2022/09/15 07:13:28;;;;;;;10.43;3.05;;;;;;;15.17;95.73;100982.63;5051294;28;20111;-70
2022/09/15 07:15:56;;;;;;;5.80;2.80;;;;;;;15.16;95.53;100985.63;5052316;28;20124;-70
2022/09/15 07:18:22;;;;;;;9.77;3.65;;;;;;;15.16;95.55;100991.13;5052465;28;20032;-70
2022/09/15 07:20:48;;;;;;;11.52;3.22;;;;;;;15.19;96.13;100990.66;5050678;28;20068;-70
2022/09/15 07:23:14;;;;;;;8.50;3.75;;;;;;;15.28;95.25;100992.09;5051479;28;20041;-70
2022/09/15 07:25:42;;;;;;;7.05;3.00;;;;;;;15.36;95.91;100989.94;5051364;28;20429;-70
2022/09/15 07:28:09;;;;;;;12.57;3.30;;;;;;;15.44;95.78;100988.81;5051762;28;20550;-70
2022/09/15 07:30:34;;;;;;;10.30;3.90;;;;;;;15.52;95.22;100985.78;5049773;28;20044;-70
2022/09/15 07:32:59;;;;;;;11.30;2.90;;;;;;;15.66;95.40;100992.84;5051532;28;20040;-70
2022/09/15 07:35:25;;;;;;;9.27;2.93;;;;;;;15.84;93.16;100990.16;5033010;28;20392;-70
2022/09/15 07:37:50;;;;;;;9.73;3.40;;;;;;;15.93;91.78;100991.53;5034051;28;20028;-70
2022/09/15 07:40:16;;;;;;;6.73;3.27;;;;;;;15.99;91.21;100994.22;5050846;28;20547;-70
2022/09/15 07:42:43;;;;;;;6.82;3.15;;;;;;;16.03;90.23;100984.41;5051234;28;20033;-70
2022/09/15 07:45:12;;;;;;;10.38;2.40;;;;;;;16.14;88.87;100991.06;5050658;28;20029;-70
2022/09/15 07:47:37;;;;;;;6.20;2.38;;;;;;;16.16;88.51;100994.47;5048734;28;20122;-70
2022/09/15 07:50:05;;;;;;;7.93;2.13;;;;;;;16.21;86.45;101000.97;5023722;28;20075;-70
2022/09/15 07:52:31;;;;;;;10.63;2.60;;;;;;;16.27;87.09;100997.28;5051166;28;20491;-70
2022/09/15 07:54:56;;;;;;;12.13;2.70;;;;;;;16.35;86.35;100994.25;5051003;28;20053;-70
2022/09/15 07:57:21;;;;;;;5.70;2.70;;;;;;;16.45;86.54;100999.25;5041304;28;20776;-70
2022/09/15 07:59:47;;;;;;;11.37;3.07;;;;;;;16.52;85.66;101000.00;5051397;28;20530;-70
2022/09/15 08:02:20;;;;;;;13.13;3.33;;;;;;;16.53;86.14;101015.50;5049833;28;20036;-70
2022/09/15 08:04:46;;;;;;;8.27;3.00;;;;;;;16.74;84.42;101009.50;5050038;28;20051;-70
2022/09/15 08:07:12;;;;;;;15.70;3.97;;;;;;;16.72;85.49;101012.53;5050744;28;20037;-71
2022/09/15 08:09:38;;;;;;;15.07;3.20;;;;;;;16.61;87.13;101006.91;5049747;28;20344;-73
2022/09/15 08:12:05;;;;;;;13.35;3.67;;;;;;;16.74;85.03;101017.78;5049261;28;20127;-72
2022/09/15 08:14:31;;;;;;;12.80;2.38;;;;;;;16.71;83.83;101021.03;5051245;28;20033;-72
2022/09/15 08:16:59;;;;;;;6.57;2.00;;;;;;;16.76;82.53;101021.19;5033675;28;20033;-73
2022/09/15 08:19:26;;;;;;;6.85;2.63;;;;;;;16.67;83.52;101025.34;5031102;28;20513;-72
2022/09/15 08:21:51;;;;;;;6.18;1.60;;;;;;;16.64;81.48;101034.94;5051392;28;20030;-73
2022/09/15 08:24:16;;;;;;;12.07;2.30;;;;;;;16.57;82.49;101036.09;5050412;28;20476;-73
2022/09/15 08:26:42;;;;;;;5.63;2.33;;;;;;;16.40;81.56;101054.41;5049950;28;20029;-72
2022/09/15 08:29:08;;;;;;;7.13;1.90;;;;;;;16.19;81.07;101057.56;5050448;28;20040;-71
2022/09/15 08:31:33;;;;;;;5.25;1.50;;;;;;;16.08;82.02;101052.81;5050071;28;20035;-72
2022/09/15 08:34:02;;;;;;;10.17;2.53;;;;;;;16.07;83.94;101062.16;5048625;28;20400;-71
2022/09/15 08:36:28;;;;;;;9.13;1.77;;;;;;;16.07;83.76;101063.00;5050089;28;20503;-70
2022/09/15 08:38:53;;;;;;;3.07;1.30;;;;;;;16.12;83.38;101065.09;5049244;28;20033;-69
2022/09/15 08:41:23;;;;;;;7.43;1.50;;;;;;;16.16;82.86;101067.16;5050358;28;20032;-69
2022/09/15 08:44:07;;;;;;;11.68;1.90;;;;;;;16.21;82.05;101063.72;5048234;28;20032;-70
2022/09/15 08:46:46;;;;;;;8.73;1.50;;;;;;;16.33;82.81;101073.78;5048267;28;20403;-69
2022/09/15 08:49:24;;;;;;;5.75;1.60;;;;;;;16.59;84.25;101076.28;5045243;28;20040;-70
2022/09/15 08:51:51;;;;;;;10.25;2.42;;;;;;;16.61;81.05;101082.47;5043208;28;20459;-69
2022/09/15 08:54:24;;;;;;;14.35;1.98;;;;;;;16.72;79.69;101080.81;5046640;28;20415;-70
2022/09/15 08:56:50;;;;;;;6.57;1.95;;;;;;;16.77;79.58;101086.50;5039381;28;20097;-69
2022/09/15 08:59:18;;;;;;;7.22;2.03;;;;;;;17.01;81.96;101091.06;5039411;28;20182;-70
2022/09/15 09:02:12;;;;;;;9.93;1.85;;;;;;;17.08;78.73;101083.56;5043278;28;20030;-70
2022/09/15 09:04:51;;;;;;;7.43;1.73;;;;;;;17.27;75.87;101087.94;4996441;28;20037;-70
2022/09/15 09:07:41;;;;;;;5.97;1.55;;;;;;;17.57;76.18;101078.59;5045045;28;20033;-69
2022/09/15 09:10:06;;;;;;;5.22;1.73;;;;;;;17.57;76.14;101094.34;5044488;28;20112;-71
2022/09/15 09:12:37;;;;;;;6.77;1.30;;;;;;;17.07;74.24;101085.47;5046016;28;20480;-69
2022/09/15 09:15:05;;;;;;;7.97;1.45;;;;;;;16.87;71.96;101095.13;5041189;28;20025;-70
2022/09/15 09:17:48;;;;;;;11.93;1.60;;;;;;;16.83;73.08;101100.28;5044792;28;20579;-71
2022/09/15 09:20:36;;;;;;;8.85;1.52;;;;;;;16.98;73.21;101095.16;5040939;28;20629;-70
2022/09/15 09:23:08;;;;;;;4.85;1.73;;;;;;;16.98;69.54;101099.88;5046334;28;20035;-69
2022/09/15 09:25:35;;;;;;;9.02;2.05;;;;;;;17.07;70.64;101104.00;5044573;28;20037;-69
2022/09/15 09:28:00;;;;;;;4.05;1.40;;;;;;;17.40;70.38;101099.72;5047621;28;20029;-70
2022/09/15 09:30:31;;;;;;;3.10;1.00;;;;;;;17.74;67.52;101096.22;5043681;28;20029;-69
2022/09/15 09:33:22;;;;;;;5.63;1.17;;;;;;;17.95;67.70;101092.88;5045246;28;20110;-69
2022/09/15 09:35:51;;;;;;;3.63;1.02;;;;;;;18.27;65.80;101096.13;5041848;28;20036;-68
2022/09/15 09:38:24;;;;;;;11.73;1.58;;;;;;;18.52;65.33;101094.81;5044071;28;20059;-69
2022/09/15 09:40:49;;;;;;;8.57;1.85;;;;;;;18.62;65.44;101085.91;5042376;28;20029;-69
2022/09/15 09:43:15;;;;;;;6.60;1.27;;;;;;;18.76;64.08;101090.94;5025713;28;20039;-69
2022/09/15 09:45:40;;;;;;;7.07;1.30;;;;;;;18.81;60.98;101093.81;5038770;28;20424;-69
2022/09/15 09:48:17;;;;;;;7.13;1.60;;;;;;;18.92;61.28;101094.88;5042452;28;20059;-70
2022/09/15 09:50:43;;;;;;;3.13;1.17;;;;;;;18.93;61.93;101102.97;5022045;28;20443;-69
2022/09/15 09:53:52;;;;;;;11.38;1.42;;;;;;;18.65;62.10;101089.03;5044666;28;20101;-69
2022/09/15 09:56:24;;;;;;;3.08;1.40;;;;;;;18.60;61.93;101100.00;4965083;28;20049;-69
2022/09/15 09:58:50;;;;;;;4.60;1.15;;;;;;;18.37;60.48;101094.50;5031794;28;20448;-69
2022/09/15 10:01:18;;;;;;;7.40;1.58;;;;;;;18.69;61.64;101103.25;5022189;28;20123;-69
2022/09/15 10:03:45;;;;;;;7.05;1.88;;;;;;;18.99;61.37;101101.16;5037964;28;20349;-70
2022/09/15 10:06:18;;;;;;;9.18;1.48;;;;;;;19.04;60.46;101092.94;5042332;28;20065;-69
2022/09/15 10:08:56;;;;;;;5.63;1.17;;;;;;;18.52;59.36;101094.00;5037444;28;20053;-69
2022/09/15 10:11:38;;;;;;;6.20;1.10;;;;;;;18.48;59.23;101085.31;5026642;28;20058;-69
2022/09/15 10:14:05;;;;;;;13.55;1.50;;;;;;;18.59;59.24;101089.16;5041266;28;20103;-70
2022/09/15 10:16:31;;;;;;;3.72;1.10;;;;;;;18.62;58.09;101085.91;5043144;28;20135;-69
2022/09/15 10:18:57;;;;;;;7.60;1.20;;;;;;;18.75;58.46;101089.25;5035451;28;20043;-69
2022/09/15 10:21:24;;;;;;;8.32;1.65;;;;;;;18.94;57.01;101090.75;5038001;28;20036;-69
2022/09/15 10:23:50;;;;;;;9.20;1.50;;;;;;;19.31;56.17;101085.72;5033382;28;20126;-69
2022/09/15 10:26:15;;;;;;;8.30;1.50;;;;;;;19.36;55.64;101083.06;5032801;28;20532;-69
2022/09/15 10:28:41;;;;;;;4.50;1.70;;;;;;;19.30;55.19;101076.53;5040574;28;20028;-68
2022/09/15 10:31:14;;;;;;;3.83;1.17;;;;;;;19.29;55.50;101085.13;5042550;28;20036;-70
2022/09/15 10:33:42;;;;;;;10.20;1.38;;;;;;;19.67;53.67;101076.94;5038952;28;20432;-69
2022/09/15 10:36:30;;;;;;;6.28;1.60;;;;;;;19.72;52.67;101080.66;5045177;28;20502;-70
2022/09/15 10:39:23;;;;;;;7.80;1.25;;;;;;;19.61;53.24;101075.16;5040487;28;20059;-70
2022/09/15 10:42:04;;;;;;;5.88;1.27;;;;;;;19.81;52.57;101072.75;5043247;28;20020;-69
2022/09/15 10:44:46;;;;;;;6.47;1.00;;;;;;;20.19;53.35;101070.91;5042127;28;20041;-69
2022/09/15 10:47:45;;;;;;;11.43;1.15;;;;;;;20.22;51.77;101064.81;5037779;28;20063;-70
2022/09/15 10:50:17;;;;;;;7.60;1.35;;;;;;;19.99;52.64;101075.25;5020227;28;20033;-70
2022/09/15 10:52:51;;;;;;;8.98;1.27;;;;;;;19.91;51.67;101070.13;5040242;28;20084;-70
2022/09/15 10:55:37;;;;;;;10.93;2.17;;;;;;;19.89;53.56;101075.94;5041346;28;20021;-70
2022/09/15 10:58:11;;;;;;;4.43;1.10;;;;;;;19.84;50.41;101077.81;5044260;28;20032;-70
2022/09/15 11:00:52;;;;;;;3.20;1.10;;;;;;;19.64;48.36;101072.72;5044518;28;20677;-71
2022/09/15 11:03:27;;;;;;;5.80;0.95;;;;;;;19.38;50.12;101081.69;5043154;28;20410;-69
2022/09/15 11:06:08;;;;;;;8.07;1.05;;;;;;;19.27;49.76;101076.19;5041374;28;20462;-70
2022/09/15 11:08:52;;;;;;;3.42;1.00;;;;;;;19.36;49.68;101085.81;5021843;28;20032;-70
2022/09/15 11:11:33;;;;;;;5.53;1.10;;;;;;;19.72;48.57;101090.94;5028634;28;20038;-70
2022/09/15 11:14:33;;;;;;;2.55;0.88;;;;;;;19.85;47.98;101085.06;5040135;28;20379;-70
2022/09/15 11:17:45;;;;;;;4.45;0.93;;;;;;;19.97;47.22;101094.16;5040335;28;20025;-70
2022/09/15 11:20:43;;;;;;;5.13;1.20;;;;;;;20.27;47.50;101087.16;5001791;28;20048;-70
2022/09/15 11:23:20;;;;;;;3.67;1.20;;;;;;;20.27;46.21;101091.91;5022518;28;20037;-70
2022/09/15 11:25:52;;;;;;;4.25;1.17;;;;;;;19.95;46.53;101101.91;5039146;28;20128;-70
2022/09/15 11:28:32;;;;;;;6.72;1.08;;;;;;;20.02;46.71;101095.06;5044510;28;20029;-70
2022/09/15 11:31:20;;;;;;;8.15;1.38;;;;;;;19.83;46.50;101093.63;5048878;28;20039;-70
2022/09/15 11:34:28;;;;;;;5.43;1.20;;;;;;;19.85;44.63;101096.19;5030204;28;20029;-69
2022/09/15 11:37:16;;;;;;;1.42;1.00;;;;;;;19.93;44.27;101107.72;5011959;28;20041;-70
2022/09/15 11:39:59;;;;;;;6.95;0.95;;;;;;;20.09;44.36;101112.47;5044716;28;20036;-70